createdAt,value
2023-01-12T00:04:51.603Z,303.20
2023-01-12T00:14:56.479Z,302.43
2023-01-12T00:24:59.913Z,303.20
2023-01-12T00:35:05.065Z,283.53
2023-01-12T00:45:24.433Z,279.43
2023-01-12T00:55:29.461Z,278.40
2023-01-12T01:05:32.921Z,279.27
2023-01-12T01:15:38.317Z,285.13
2023-01-12T01:25:41.780Z,289.33
2023-01-12T01:35:46.648Z,296.40
2023-01-12T01:46:00.031Z,288.93
2023-01-12T01:56:09.651Z,278.57
2023-01-12T02:06:13.529Z,290.17
2023-01-12T02:16:25.409Z,290.10
2023-01-12T02:27:20.956Z,283.30
2023-01-12T02:37:35.157Z,284.97
2023-01-12T02:47:45.833Z,289.37
2023-01-12T02:57:51.594Z,268.47
2023-01-12T03:08:00.256Z,277.27
2023-01-12T03:18:10.752Z,284.60
2023-01-12T03:28:18.032Z,270.27
2023-01-12T03:38:29.724Z,275.73
2023-01-12T03:48:40.094Z,272.10
2023-01-12T03:58:45.825Z,272.63
2023-01-12T04:08:49.539Z,278.23
2023-01-12T04:18:54.356Z,274.47
2023-01-12T04:28:57.792Z,272.17
2023-01-12T04:39:02.684Z,270.77
2023-01-12T04:49:06.154Z,275.80
2023-01-12T04:59:10.953Z,272.87
2023-01-12T05:09:31.809Z,284.87
2023-01-12T05:19:36.747Z,271.53
2023-01-12T05:29:40.196Z,276.77
2023-01-12T05:39:45.111Z,280.03
2023-01-12T05:49:48.616Z,262.17
2023-01-12T05:59:53.421Z,260.93
2023-01-12T06:09:56.943Z,259.60
2023-01-12T06:20:01.743Z,260.83
2023-01-12T06:30:07.209Z,265.63
2023-01-12T06:40:14.145Z,262.93
2023-01-12T06:50:18.494Z,272.50
2023-01-12T07:00:24.058Z,258.50
2023-01-12T07:10:27.994Z,255.20
2023-01-12T07:20:34.513Z,257.93
2023-01-12T07:30:38.125Z,254.43
2023-01-12T07:40:42.983Z,256.97
2023-01-12T07:50:46.479Z,254.97
2023-01-12T08:00:51.455Z,259.37
2023-01-12T08:10:55.068Z,263.90
2023-01-12T08:21:03.302Z,253.63
2023-01-12T08:31:10.016Z,251.30
2023-01-12T08:41:32.572Z,244.03
2023-01-12T08:51:36.481Z,251.37
2023-01-12T09:01:41.738Z,247.07
2023-01-12T09:11:45.978Z,246.00
2023-01-12T09:21:50.853Z,249.00
2023-01-12T09:31:54.383Z,249.83
2023-01-12T09:42:17.943Z,237.50
2023-01-12T09:52:27.038Z,223.47
2023-01-12T10:02:35.791Z,222.90
2023-01-12T10:12:45.819Z,223.63
2023-01-12T10:22:54.499Z,216.77
2023-01-12T10:32:58.273Z,225.77
2023-01-12T10:43:32.364Z,215.33
2023-01-12T10:53:45.538Z,223.17
2023-01-12T11:03:50.692Z,224.57
2023-01-12T11:13:57.580Z,219.73
2023-01-12T11:24:10.557Z,217.45
2023-01-12T11:34:19.020Z,215.93
2023-01-12T11:44:30.556Z,216.93
2023-01-12T11:54:34.026Z,221.60
2023-01-12T12:04:52.322Z,236.77
2023-01-12T12:15:22.229Z,233.77
2023-01-12T12:25:36.064Z,220.97
2023-01-12T12:35:55.254Z,219.17
2023-01-12T12:46:09.995Z,214.73
2023-01-12T12:56:17.158Z,218.00
2023-01-12T13:06:25.233Z,212.53
2023-01-12T13:16:48.022Z,211.23
2023-01-12T13:26:54.040Z,216.67
2023-01-12T13:37:13.563Z,211.27
2023-01-12T13:47:27.124Z,216.53
2023-01-12T13:57:32.868Z,213.97
2023-01-12T14:07:52.821Z,215.63
2023-01-12T14:18:06.156Z,214.93
2023-01-12T14:28:19.049Z,219.37
2023-01-12T14:38:26.263Z,222.13
2023-01-12T14:48:34.346Z,222.10
2023-01-12T14:58:38.096Z,220.67
2023-01-12T15:08:56.244Z,216.10
2023-01-12T15:19:17.118Z,210.57
2023-01-12T15:29:21.943Z,209.33
2023-01-12T15:39:25.448Z,210.53
2023-01-12T15:49:30.387Z,216.47
2023-01-12T15:59:33.927Z,212.23
2023-01-12T16:09:38.837Z,222.00
2023-01-12T16:19:42.479Z,215.20
2023-01-12T16:29:47.612Z,210.60
2023-01-12T16:39:51.471Z,211.70
2023-01-12T16:49:56.443Z,204.57
2023-01-12T17:00:00.005Z,201.63
2023-01-12T17:10:05.234Z,216.20
2023-01-12T17:20:12.559Z,210.50
2023-01-12T17:30:22.524Z,232.77
2023-01-12T17:40:28.541Z,216.07
2023-01-12T17:50:33.534Z,222.70
2023-01-12T18:00:37.173Z,208.30
2023-01-12T18:10:42.482Z,203.50
2023-01-12T18:20:46.063Z,196.33
2023-01-12T18:30:51.001Z,204.37
2023-01-12T18:41:08.688Z,202.87
2023-01-12T18:51:31.808Z,204.20
2023-01-12T19:01:37.170Z,202.97
2023-01-12T19:11:43.365Z,205.17
2023-01-12T19:22:04.242Z,207.43
2023-01-12T19:32:11.534Z,212.10
2023-01-12T19:42:32.989Z,208.37
2023-01-12T19:52:39.456Z,210.60
2023-01-12T20:02:43.775Z,214.50
2023-01-12T20:12:49.648Z,209.73
2023-01-12T20:22:53.634Z,208.37
2023-01-12T20:32:58.524Z,211.83
2023-01-12T20:43:02.777Z,209.13
2023-01-12T20:53:07.689Z,207.50
2023-01-12T21:03:11.439Z,203.73
2023-01-12T21:13:16.645Z,202.10
2023-01-12T21:23:20.274Z,204.47
2023-01-12T21:33:25.155Z,199.20
2023-01-12T21:43:30.239Z,201.93
2023-01-12T21:53:35.750Z,198.97
2023-01-12T22:03:39.846Z,200.73
2023-01-12T22:13:45.306Z,199.07
2023-01-12T22:23:49.236Z,203.53
2023-01-12T22:33:58.535Z,199.03
2023-01-12T22:44:02.035Z,202.93
2023-01-12T22:54:06.989Z,200.17
2023-01-12T23:04:12.825Z,201.77
2023-01-12T23:14:17.774Z,191.83
2023-01-12T23:24:21.258Z,191.80
2023-01-12T23:34:26.090Z,198.83
2023-01-12T23:44:29.718Z,197.30
2023-01-12T23:54:34.768Z,200.90
